sensor_id;sensor_type;location;lat;lon;timestamp;P1;durP1;ratioP1;P2;durP2;ratioP2
68803;SDS011;55787;52.678;13.314;2022-12-24T00:01:00;18.35;;;5.50;;
68803;SDS011;55787;52.678;13.314;2022-12-24T00:03:27;15.18;;;4.93;;
68803;SDS011;55787;52.678;13.314;2022-12-24T00:05:54;14.80;;;5.15;;
68803;SDS011;55787;52.678;13.314;2022-12-24T00:08:21;15.52;;;5.43;;
68803;SDS011;55787;52.678;13.314;2022-12-24T00:10:51;14.23;;;5.03;;
68803;SDS011;55787;52.678;13.314;2022-12-24T00:13:19;13.25;;;4.60;;
68803;SDS011;55787;52.678;13.314;2022-12-24T00:15:46;12.95;;;4.38;;
68803;SDS011;55787;52.678;13.314;2022-12-24T00:18:13;13.45;;;4.82;;
68803;SDS011;55787;52.678;13.314;2022-12-24T00:20:40;14.65;;;4.72;;
68803;SDS011;55787;52.678;13.314;2022-12-24T00:23:07;14.17;;;4.67;;
68803;SDS011;55787;52.678;13.314;2022-12-24T00:25:34;13.40;;;4.53;;
68803;SDS011;55787;52.678;13.314;2022-12-24T00:28:00;13.70;;;4.35;;
68803;SDS011;55787;52.678;13.314;2022-12-24T00:30:27;13.43;;;4.55;;
68803;SDS011;55787;52.678;13.314;2022-12-24T00:32:54;13.32;;;4.57;;
68803;SDS011;55787;52.678;13.314;2022-12-24T00:35:20;14.52;;;4.57;;
68803;SDS011;55787;52.678;13.314;2022-12-24T00:37:47;14.68;;;4.60;;
68803;SDS011;55787;52.678;13.314;2022-12-24T00:40:15;14.02;;;4.80;;
68803;SDS011;55787;52.678;13.314;2022-12-24T00:42:42;15.32;;;4.75;;
68803;SDS011;55787;52.678;13.314;2022-12-24T00:45:10;13.70;;;4.80;;
68803;SDS011;55787;52.678;13.314;2022-12-24T00:47:37;15.23;;;4.50;;
68803;SDS011;55787;52.678;13.314;2022-12-24T00:50:04;13.20;;;4.80;;
68803;SDS011;55787;52.678;13.314;2022-12-24T00:52:31;15.32;;;4.85;;
68803;SDS011;55787;52.678;13.314;2022-12-24T00:54:58;16.42;;;5.03;;
68803;SDS011;55787;52.678;13.314;2022-12-24T00:57:24;14.93;;;5.20;;
68803;SDS011;55787;52.678;13.314;2022-12-24T00:59:51;15.70;;;5.37;;
68803;SDS011;55787;52.678;13.314;2022-12-24T01:02:18;15.80;;;5.40;;
68803;SDS011;55787;52.678;13.314;2022-12-24T01:04:45;16.63;;;5.28;;
68803;SDS011;55787;52.678;13.314;2022-12-24T01:07:30;17.25;;;5.60;;
68803;SDS011;55787;52.678;13.314;2022-12-24T01:09:57;15.60;;;5.28;;
68803;SDS011;55787;52.678;13.314;2022-12-24T01:12:24;14.65;;;5.10;;
68803;SDS011;55787;52.678;13.314;2022-12-24T01:14:51;15.40;;;5.07;;
68803;SDS011;55787;52.678;13.314;2022-12-24T01:17:17;16.70;;;5.40;;
68803;SDS011;55787;52.678;13.314;2022-12-24T01:19:44;16.08;;;5.32;;
68803;SDS011;55787;52.678;13.314;2022-12-24T01:22:10;15.30;;;5.20;;
68803;SDS011;55787;52.678;13.314;2022-12-24T01:24:39;14.33;;;4.67;;
68803;SDS011;55787;52.678;13.314;2022-12-24T01:27:06;16.85;;;5.57;;
68803;SDS011;55787;52.678;13.314;2022-12-24T01:29:33;16.52;;;5.50;;
68803;SDS011;55787;52.678;13.314;2022-12-24T01:32:00;16.20;;;5.72;;
68803;SDS011;55787;52.678;13.314;2022-12-24T01:34:27;17.20;;;5.63;;
68803;SDS011;55787;52.678;13.314;2022-12-24T01:36:54;19.23;;;5.97;;
68803;SDS011;55787;52.678;13.314;2022-12-24T01:39:20;15.52;;;5.30;;
68803;SDS011;55787;52.678;13.314;2022-12-24T01:41:47;16.83;;;4.95;;
68803;SDS011;55787;52.678;13.314;2022-12-24T01:44:34;15.98;;;5.60;;
68803;SDS011;55787;52.678;13.314;2022-12-24T01:47:07;21.35;;;6.28;;
68803;SDS011;55787;52.678;13.314;2022-12-24T01:49:41;16.83;;;5.97;;
68803;SDS011;55787;52.678;13.314;2022-12-24T01:52:16;18.05;;;5.60;;
68803;SDS011;55787;52.678;13.314;2022-12-24T01:54:51;16.88;;;5.72;;
68803;SDS011;55787;52.678;13.314;2022-12-24T01:57:23;17.27;;;5.55;;
68803;SDS011;55787;52.678;13.314;2022-12-24T01:59:54;17.63;;;5.55;;
68803;SDS011;55787;52.678;13.314;2022-12-24T02:02:25;17.60;;;5.20;;
68803;SDS011;55787;52.678;13.314;2022-12-24T02:07:32;18.80;;;5.95;;
68803;SDS011;55787;52.678;13.314;2022-12-24T02:09:59;17.48;;;5.88;;
68803;SDS011;55787;52.678;13.314;2022-12-24T02:12:27;16.83;;;5.15;;
68803;SDS011;55787;52.678;13.314;2022-12-24T02:14:56;16.13;;;5.40;;
68803;SDS011;55787;52.678;13.314;2022-12-24T02:17:32;16.52;;;5.43;;
68803;SDS011;55787;52.678;13.314;2022-12-24T02:22:45;19.98;;;5.90;;
68803;SDS011;55787;52.678;13.314;2022-12-24T02:33:17;17.90;;;5.70;;
68803;SDS011;55787;52.678;13.314;2022-12-24T02:39:00;15.05;;;5.00;;
68803;SDS011;55787;52.678;13.314;2022-12-24T02:41:34;15.25;;;5.35;;
68803;SDS011;55787;52.678;13.314;2022-12-24T02:44:24;17.98;;;5.85;;
68803;SDS011;55787;52.678;13.314;2022-12-24T02:46:53;16.15;;;5.40;;
68803;SDS011;55787;52.678;13.314;2022-12-24T02:49:22;18.98;;;5.88;;
68803;SDS011;55787;52.678;13.314;2022-12-24T02:51:48;16.65;;;5.55;;
68803;SDS011;55787;52.678;13.314;2022-12-24T02:54:15;17.50;;;5.40;;
68803;SDS011;55787;52.678;13.314;2022-12-24T03:12:47;19.35;;;5.97;;
68803;SDS011;55787;52.678;13.314;2022-12-24T03:15:20;20.92;;;6.28;;
68803;SDS011;55787;52.678;13.314;2022-12-24T03:17:49;18.90;;;6.22;;
68803;SDS011;55787;52.678;13.314;2022-12-24T03:20:21;17.30;;;5.50;;
68803;SDS011;55787;52.678;13.314;2022-12-24T03:22:52;18.02;;;6.07;;
68803;SDS011;55787;52.678;13.314;2022-12-24T03:25:19;19.23;;;6.30;;
68803;SDS011;55787;52.678;13.314;2022-12-24T03:27:49;19.58;;;6.45;;
68803;SDS011;55787;52.678;13.314;2022-12-24T03:30:17;15.75;;;5.28;;
68803;SDS011;55787;52.678;13.314;2022-12-24T03:32:44;17.10;;;6.10;;
68803;SDS011;55787;52.678;13.314;2022-12-24T03:35:12;16.77;;;5.63;;
68803;SDS011;55787;52.678;13.314;2022-12-24T03:37:39;18.80;;;6.13;;
68803;SDS011;55787;52.678;13.314;2022-12-24T03:40:06;17.95;;;6.13;;
68803;SDS011;55787;52.678;13.314;2022-12-24T03:42:33;16.50;;;5.22;;
68803;SDS011;55787;52.678;13.314;2022-12-24T03:45:00;19.90;;;6.50;;
68803;SDS011;55787;52.678;13.314;2022-12-24T03:47:26;20.52;;;6.15;;
68803;SDS011;55787;52.678;13.314;2022-12-24T03:49:53;19.60;;;6.15;;
68803;SDS011;55787;52.678;13.314;2022-12-24T03:52:20;18.95;;;6.22;;
68803;SDS011;55787;52.678;13.314;2022-12-24T03:54:46;19.92;;;6.43;;
68803;SDS011;55787;52.678;13.314;2022-12-24T03:57:13;21.10;;;6.47;;
68803;SDS011;55787;52.678;13.314;2022-12-24T03:59:39;19.10;;;5.93;;
68803;SDS011;55787;52.678;13.314;2022-12-24T04:02:06;21.33;;;6.50;;
68803;SDS011;55787;52.678;13.314;2022-12-24T04:04:33;17.70;;;5.78;;
68803;SDS011;55787;52.678;13.314;2022-12-24T04:07:02;19.55;;;6.38;;
68803;SDS011;55787;52.678;13.314;2022-12-24T04:09:30;17.53;;;6.00;;
68803;SDS011;55787;52.678;13.314;2022-12-24T04:11:57;18.90;;;5.82;;
68803;SDS011;55787;52.678;13.314;2022-12-24T04:14:24;22.48;;;6.68;;
68803;SDS011;55787;52.678;13.314;2022-12-24T04:16:50;17.23;;;5.80;;
68803;SDS011;55787;52.678;13.314;2022-12-24T04:19:17;19.00;;;6.05;;
68803;SDS011;55787;52.678;13.314;2022-12-24T04:21:44;16.63;;;5.60;;
68803;SDS011;55787;52.678;13.314;2022-12-24T04:24:11;18.63;;;6.35;;
68803;SDS011;55787;52.678;13.314;2022-12-24T04:26:37;16.98;;;5.93;;
68803;SDS011;55787;52.678;13.314;2022-12-24T04:29:04;18.75;;;6.30;;
68803;SDS011;55787;52.678;13.314;2022-12-24T04:31:31;20.02;;;5.93;;
68803;SDS011;55787;52.678;13.314;2022-12-24T04:33:57;19.00;;;6.00;;
68803;SDS011;55787;52.678;13.314;2022-12-24T04:36:24;19.02;;;6.28;;
68803;SDS011;55787;52.678;13.314;2022-12-24T04:38:50;18.13;;;6.30;;
68803;SDS011;55787;52.678;13.314;2022-12-24T04:41:21;19.58;;;6.47;;
68803;SDS011;55787;52.678;13.314;2022-12-24T04:43:51;18.13;;;5.75;;
68803;SDS011;55787;52.678;13.314;2022-12-24T04:46:20;16.17;;;5.40;;
68803;SDS011;55787;52.678;13.314;2022-12-24T04:48:49;19.80;;;6.20;;
68803;SDS011;55787;52.678;13.314;2022-12-24T04:51:18;18.40;;;6.35;;
68803;SDS011;55787;52.678;13.314;2022-12-24T04:53:45;20.05;;;5.97;;
68803;SDS011;55787;52.678;13.314;2022-12-24T04:56:21;17.48;;;5.75;;
68803;SDS011;55787;52.678;13.314;2022-12-24T04:58:50;19.53;;;6.07;;
68803;SDS011;55787;52.678;13.314;2022-12-24T05:01:18;19.98;;;5.97;;
68803;SDS011;55787;52.678;13.314;2022-12-24T05:03:47;20.13;;;6.40;;
68803;SDS011;55787;52.678;13.314;2022-12-24T05:06:16;19.23;;;6.55;;
68803;SDS011;55787;52.678;13.314;2022-12-24T05:08:45;19.65;;;6.30;;
68803;SDS011;55787;52.678;13.314;2022-12-24T05:11:12;18.87;;;6.27;;
68803;SDS011;55787;52.678;13.314;2022-12-24T05:13:41;17.33;;;5.97;;
68803;SDS011;55787;52.678;13.314;2022-12-24T05:16:13;18.92;;;6.00;;
68803;SDS011;55787;52.678;13.314;2022-12-24T05:18:42;17.73;;;5.65;;
68803;SDS011;55787;52.678;13.314;2022-12-24T05:21:09;18.42;;;5.88;;
68803;SDS011;55787;52.678;13.314;2022-12-24T05:23:37;19.40;;;6.70;;
68803;SDS011;55787;52.678;13.314;2022-12-24T05:28:55;21.52;;;6.35;;
68803;SDS011;55787;52.678;13.314;2022-12-24T05:31:23;18.67;;;6.30;;
68803;SDS011;55787;52.678;13.314;2022-12-24T05:33:51;20.20;;;6.00;;
68803;SDS011;55787;52.678;13.314;2022-12-24T05:36:20;17.63;;;6.33;;
68803;SDS011;55787;52.678;13.314;2022-12-24T05:38:47;18.48;;;6.43;;
68803;SDS011;55787;52.678;13.314;2022-12-24T05:41:15;16.77;;;5.88;;
68803;SDS011;55787;52.678;13.314;2022-12-24T05:43:42;20.33;;;6.63;;
68803;SDS011;55787;52.678;13.314;2022-12-24T05:46:09;16.98;;;5.85;;
68803;SDS011;55787;52.678;13.314;2022-12-24T05:48:37;18.50;;;6.00;;
68803;SDS011;55787;52.678;13.314;2022-12-24T05:51:05;23.17;;;6.82;;
68803;SDS011;55787;52.678;13.314;2022-12-24T05:53:33;18.98;;;6.70;;
68803;SDS011;55787;52.678;13.314;2022-12-24T05:56:01;20.27;;;6.32;;
68803;SDS011;55787;52.678;13.314;2022-12-24T05:58:32;20.25;;;6.38;;
68803;SDS011;55787;52.678;13.314;2022-12-24T06:01:00;20.00;;;6.87;;
68803;SDS011;55787;52.678;13.314;2022-12-24T06:03:28;19.67;;;6.72;;
68803;SDS011;55787;52.678;13.314;2022-12-24T06:08:26;18.85;;;7.18;;
68803;SDS011;55787;52.678;13.314;2022-12-24T06:10:54;21.48;;;7.43;;
68803;SDS011;55787;52.678;13.314;2022-12-24T06:13:22;23.50;;;7.80;;
68803;SDS011;55787;52.678;13.314;2022-12-24T06:15:50;20.48;;;6.90;;
68803;SDS011;55787;52.678;13.314;2022-12-24T06:18:20;19.63;;;6.57;;
68803;SDS011;55787;52.678;13.314;2022-12-24T06:20:51;21.83;;;7.18;;
68803;SDS011;55787;52.678;13.314;2022-12-24T06:23:18;20.00;;;7.10;;
68803;SDS011;55787;52.678;13.314;2022-12-24T06:25:46;21.70;;;7.00;;
68803;SDS011;55787;52.678;13.314;2022-12-24T06:28:13;19.67;;;6.68;;
68803;SDS011;55787;52.678;13.314;2022-12-24T06:30:40;20.13;;;6.70;;
68803;SDS011;55787;52.678;13.314;2022-12-24T06:33:07;20.92;;;6.70;;
68803;SDS011;55787;52.678;13.314;2022-12-24T06:35:33;21.42;;;6.88;;
68803;SDS011;55787;52.678;13.314;2022-12-24T06:38:00;19.53;;;6.60;;
68803;SDS011;55787;52.678;13.314;2022-12-24T06:40:27;20.52;;;6.53;;
68803;SDS011;55787;52.678;13.314;2022-12-24T06:42:53;19.38;;;6.57;;
68803;SDS011;55787;52.678;13.314;2022-12-24T06:45:20;19.98;;;6.88;;
68803;SDS011;55787;52.678;13.314;2022-12-24T06:47:47;19.70;;;6.70;;
68803;SDS011;55787;52.678;13.314;2022-12-24T06:50:14;20.55;;;6.68;;
68803;SDS011;55787;52.678;13.314;2022-12-24T06:52:40;20.75;;;6.78;;
68803;SDS011;55787;52.678;13.314;2022-12-24T06:55:07;21.77;;;7.47;;
68803;SDS011;55787;52.678;13.314;2022-12-24T06:57:34;22.17;;;6.60;;
68803;SDS011;55787;52.678;13.314;2022-12-24T07:00:01;22.65;;;7.00;;
68803;SDS011;55787;52.678;13.314;2022-12-24T07:02:27;25.75;;;6.65;;
68803;SDS011;55787;52.678;13.314;2022-12-24T07:04:54;20.27;;;6.97;;
68803;SDS011;55787;52.678;13.314;2022-12-24T07:07:21;20.48;;;6.63;;
68803;SDS011;55787;52.678;13.314;2022-12-24T07:09:47;22.33;;;6.75;;
68803;SDS011;55787;52.678;13.314;2022-12-24T07:12:14;20.73;;;6.57;;
68803;SDS011;55787;52.678;13.314;2022-12-24T07:14:41;20.17;;;6.40;;
68803;SDS011;55787;52.678;13.314;2022-12-24T07:17:07;23.65;;;7.10;;
68803;SDS011;55787;52.678;13.314;2022-12-24T07:19:34;19.65;;;6.68;;
68803;SDS011;55787;52.678;13.314;2022-12-24T07:22:01;22.27;;;7.82;;
68803;SDS011;55787;52.678;13.314;2022-12-24T07:24:28;20.20;;;7.35;;
68803;SDS011;55787;52.678;13.314;2022-12-24T07:26:55;21.90;;;7.20;;
68803;SDS011;55787;52.678;13.314;2022-12-24T07:29:21;21.13;;;7.03;;
68803;SDS011;55787;52.678;13.314;2022-12-24T07:31:48;21.92;;;7.00;;
68803;SDS011;55787;52.678;13.314;2022-12-24T07:34:15;21.02;;;6.82;;
68803;SDS011;55787;52.678;13.314;2022-12-24T07:36:42;22.25;;;7.00;;
68803;SDS011;55787;52.678;13.314;2022-12-24T07:39:08;20.27;;;6.93;;
68803;SDS011;55787;52.678;13.314;2022-12-24T07:41:35;23.38;;;8.40;;
68803;SDS011;55787;52.678;13.314;2022-12-24T07:44:07;22.42;;;7.80;;
68803;SDS011;55787;52.678;13.314;2022-12-24T07:46:38;22.33;;;8.35;;
68803;SDS011;55787;52.678;13.314;2022-12-24T07:49:06;23.00;;;8.07;;
68803;SDS011;55787;52.678;13.314;2022-12-24T07:51:32;22.93;;;7.17;;
68803;SDS011;55787;52.678;13.314;2022-12-24T07:53:59;23.10;;;6.80;;
68803;SDS011;55787;52.678;13.314;2022-12-24T07:56:26;19.40;;;7.10;;
68803;SDS011;55787;52.678;13.314;2022-12-24T07:58:52;22.27;;;7.07;;
68803;SDS011;55787;52.678;13.314;2022-12-24T08:01:19;20.27;;;6.63;;
68803;SDS011;55787;52.678;13.314;2022-12-24T08:03:46;19.90;;;6.87;;
68803;SDS011;55787;52.678;13.314;2022-12-24T08:06:13;21.52;;;7.22;;
68803;SDS011;55787;52.678;13.314;2022-12-24T08:08:39;21.38;;;7.07;;
68803;SDS011;55787;52.678;13.314;2022-12-24T08:11:06;20.73;;;7.55;;
68803;SDS011;55787;52.678;13.314;2022-12-24T08:13:33;20.67;;;6.70;;
68803;SDS011;55787;52.678;13.314;2022-12-24T08:16:00;20.33;;;7.00;;
68803;SDS011;55787;52.678;13.314;2022-12-24T08:18:27;20.92;;;6.50;;
68803;SDS011;55787;52.678;13.314;2022-12-24T08:20:53;21.90;;;6.97;;
68803;SDS011;55787;52.678;13.314;2022-12-24T08:23:20;18.77;;;6.80;;
68803;SDS011;55787;52.678;13.314;2022-12-24T08:25:47;20.77;;;6.88;;
68803;SDS011;55787;52.678;13.314;2022-12-24T08:28:15;21.17;;;6.72;;
68803;SDS011;55787;52.678;13.314;2022-12-24T08:30:44;19.02;;;6.32;;
68803;SDS011;55787;52.678;13.314;2022-12-24T08:33:12;20.70;;;6.65;;
68803;SDS011;55787;52.678;13.314;2022-12-24T08:35:39;19.67;;;6.72;;
68803;SDS011;55787;52.678;13.314;2022-12-24T08:38:06;21.70;;;7.07;;
68803;SDS011;55787;52.678;13.314;2022-12-24T08:40:32;19.30;;;6.18;;
68803;SDS011;55787;52.678;13.314;2022-12-24T08:43:00;18.58;;;5.85;;
68803;SDS011;55787;52.678;13.314;2022-12-24T08:45:27;19.35;;;6.55;;
68803;SDS011;55787;52.678;13.314;2022-12-24T08:47:59;21.33;;;6.97;;
68803;SDS011;55787;52.678;13.314;2022-12-24T08:50:26;19.55;;;6.35;;
68803;SDS011;55787;52.678;13.314;2022-12-24T08:52:54;18.93;;;6.30;;
68803;SDS011;55787;52.678;13.314;2022-12-24T08:55:20;15.85;;;5.45;;
68803;SDS011;55787;52.678;13.314;2022-12-24T08:57:47;22.80;;;7.50;;
68803;SDS011;55787;52.678;13.314;2022-12-24T09:00:14;19.58;;;6.95;;
68803;SDS011;55787;52.678;13.314;2022-12-24T09:02:41;21.63;;;7.95;;
68803;SDS011;55787;52.678;13.314;2022-12-24T09:05:08;22.35;;;7.20;;
68803;SDS011;55787;52.678;13.314;2022-12-24T09:07:35;20.73;;;7.53;;
68803;SDS011;55787;52.678;13.314;2022-12-24T09:10:02;22.23;;;8.00;;
68803;SDS011;55787;52.678;13.314;2022-12-24T09:12:29;19.35;;;7.13;;
68803;SDS011;55787;52.678;13.314;2022-12-24T09:14:56;22.55;;;7.93;;
68803;SDS011;55787;52.678;13.314;2022-12-24T09:17:29;17.80;;;6.20;;
68803;SDS011;55787;52.678;13.314;2022-12-24T09:19:55;18.48;;;6.85;;
68803;SDS011;55787;52.678;13.314;2022-12-24T09:22:22;15.65;;;5.57;;
68803;SDS011;55787;52.678;13.314;2022-12-24T09:24:49;19.92;;;6.35;;
68803;SDS011;55787;52.678;13.314;2022-12-24T09:27:15;15.43;;;5.32;;
68803;SDS011;55787;52.678;13.314;2022-12-24T09:29:42;16.10;;;5.87;;
68803;SDS011;55787;52.678;13.314;2022-12-24T09:32:09;16.92;;;6.10;;
68803;SDS011;55787;52.678;13.314;2022-12-24T09:34:35;19.40;;;6.20;;
68803;SDS011;55787;52.678;13.314;2022-12-24T09:37:02;15.38;;;5.20;;
68803;SDS011;55787;52.678;13.314;2022-12-24T09:39:29;17.02;;;5.68;;
68803;SDS011;55787;52.678;13.314;2022-12-24T09:42:03;19.53;;;6.57;;
68803;SDS011;55787;52.678;13.314;2022-12-24T09:47:54;20.00;;;5.18;;
68803;SDS011;55787;52.678;13.314;2022-12-24T09:53:17;14.85;;;5.22;;
68803;SDS011;55787;52.678;13.314;2022-12-24T09:55:55;14.65;;;5.22;;
68803;SDS011;55787;52.678;13.314;2022-12-24T09:58:35;14.32;;;5.15;;
68803;SDS011;55787;52.678;13.314;2022-12-24T10:01:05;13.95;;;4.82;;
68803;SDS011;55787;52.678;13.314;2022-12-24T10:03:32;14.45;;;4.75;;
68803;SDS011;55787;52.678;13.314;2022-12-24T10:11:41;13.63;;;4.40;;
68803;SDS011;55787;52.678;13.314;2022-12-24T10:28:05;15.88;;;6.05;;
68803;SDS011;55787;52.678;13.314;2022-12-24T10:30:40;17.85;;;5.93;;
68803;SDS011;55787;52.678;13.314;2022-12-24T10:33:28;15.35;;;5.65;;
68803;SDS011;55787;52.678;13.314;2022-12-24T10:36:03;19.73;;;6.97;;
68803;SDS011;55787;52.678;13.314;2022-12-24T10:38:37;17.83;;;6.65;;
68803;SDS011;55787;52.678;13.314;2022-12-24T10:41:23;17.45;;;5.70;;
68803;SDS011;55787;52.678;13.314;2022-12-24T10:44:12;17.05;;;6.05;;
68803;SDS011;55787;52.678;13.314;2022-12-24T10:47:03;17.15;;;6.18;;
68803;SDS011;55787;52.678;13.314;2022-12-24T10:49:59;18.73;;;6.23;;
68803;SDS011;55787;52.678;13.314;2022-12-24T10:52:48;18.13;;;7.00;;
68803;SDS011;55787;52.678;13.314;2022-12-24T10:55:38;17.20;;;6.57;;
68803;SDS011;55787;52.678;13.314;2022-12-24T10:58:25;18.52;;;7.05;;
68803;SDS011;55787;52.678;13.314;2022-12-24T11:01:12;16.80;;;6.47;;
68803;SDS011;55787;52.678;13.314;2022-12-24T11:04:00;17.97;;;6.93;;
68803;SDS011;55787;52.678;13.314;2022-12-24T11:06:58;20.02;;;6.90;;
68803;SDS011;55787;52.678;13.314;2022-12-24T11:09:54;19.38;;;7.15;;
68803;SDS011;55787;52.678;13.314;2022-12-24T11:12:46;20.52;;;7.28;;
68803;SDS011;55787;52.678;13.314;2022-12-24T11:16:09;20.85;;;7.82;;
68803;SDS011;55787;52.678;13.314;2022-12-24T11:19:14;24.90;;;10.07;;
68803;SDS011;55787;52.678;13.314;2022-12-24T11:22:23;23.80;;;9.18;;
68803;SDS011;55787;52.678;13.314;2022-12-24T11:25:20;23.15;;;8.15;;
68803;SDS011;55787;52.678;13.314;2022-12-24T11:28:11;24.10;;;9.05;;
68803;SDS011;55787;52.678;13.314;2022-12-24T11:31:28;34.45;;;15.40;;
68803;SDS011;55787;52.678;13.314;2022-12-24T11:33:52;25.83;;;10.30;;
68803;SDS011;55787;52.678;13.314;2022-12-24T11:36:22;32.30;;;14.35;;
68803;SDS011;55787;52.678;13.314;2022-12-24T11:38:53;35.22;;;16.30;;
68803;SDS011;55787;52.678;13.314;2022-12-24T11:41:22;32.38;;;13.98;;
68803;SDS011;55787;52.678;13.314;2022-12-24T11:43:56;23.67;;;8.98;;
68803;SDS011;55787;52.678;13.314;2022-12-24T11:52:01;21.60;;;7.78;;
68803;SDS011;55787;52.678;13.314;2022-12-24T11:54:31;20.33;;;8.65;;
68803;SDS011;55787;52.678;13.314;2022-12-24T11:57:06;21.98;;;7.95;;
68803;SDS011;55787;52.678;13.314;2022-12-24T11:59:38;20.93;;;8.67;;
68803;SDS011;55787;52.678;13.314;2022-12-24T12:05:04;17.80;;;6.78;;
68803;SDS011;55787;52.678;13.314;2022-12-24T12:07:37;17.80;;;6.72;;
68803;SDS011;55787;52.678;13.314;2022-12-24T12:12:49;31.40;;;14.55;;
68803;SDS011;55787;52.678;13.314;2022-12-24T12:15:46;22.20;;;9.40;;
68803;SDS011;55787;52.678;13.314;2022-12-24T12:18:23;18.35;;;7.53;;
68803;SDS011;55787;52.678;13.314;2022-12-24T12:21:03;18.88;;;7.32;;
68803;SDS011;55787;52.678;13.314;2022-12-24T12:23:33;19.85;;;7.25;;
68803;SDS011;55787;52.678;13.314;2022-12-24T12:32:15;20.15;;;8.15;;
68803;SDS011;55787;52.678;13.314;2022-12-24T12:35:27;21.23;;;7.45;;
68803;SDS011;55787;52.678;13.314;2022-12-24T12:38:20;18.88;;;6.90;;
68803;SDS011;55787;52.678;13.314;2022-12-24T12:50:56;18.92;;;7.00;;
68803;SDS011;55787;52.678;13.314;2022-12-24T12:53:01;21.92;;;7.78;;
68803;SDS011;55787;52.678;13.314;2022-12-24T12:58:42;21.60;;;8.15;;
68803;SDS011;55787;52.678;13.314;2022-12-24T13:09:32;22.27;;;8.32;;
68803;SDS011;55787;52.678;13.314;2022-12-24T13:15:04;21.67;;;8.38;;
68803;SDS011;55787;52.678;13.314;2022-12-24T13:20:36;28.77;;;11.73;;
68803;SDS011;55787;52.678;13.314;2022-12-24T13:23:22;21.63;;;8.25;;
68803;SDS011;55787;52.678;13.314;2022-12-24T13:25:52;20.35;;;8.48;;
68803;SDS011;55787;52.678;13.314;2022-12-24T13:31:21;23.17;;;9.85;;
68803;SDS011;55787;52.678;13.314;2022-12-24T13:36:09;29.90;;;14.20;;
68803;SDS011;55787;52.678;13.314;2022-12-24T13:38:40;27.23;;;12.40;;
68803;SDS011;55787;52.678;13.314;2022-12-24T13:46:52;29.13;;;13.88;;
68803;SDS011;55787;52.678;13.314;2022-12-24T13:57:39;24.80;;;11.02;;
68803;SDS011;55787;52.678;13.314;2022-12-24T14:08:00;18.65;;;7.03;;
68803;SDS011;55787;52.678;13.314;2022-12-24T14:10:36;22.33;;;7.10;;
68803;SDS011;55787;52.678;13.314;2022-12-24T14:13:05;21.38;;;7.88;;
68803;SDS011;55787;52.678;13.314;2022-12-24T14:18:22;20.38;;;7.88;;
68803;SDS011;55787;52.678;13.314;2022-12-24T14:20:50;29.85;;;13.10;;
68803;SDS011;55787;52.678;13.314;2022-12-24T14:26:21;22.60;;;8.15;;
68803;SDS011;55787;52.678;13.314;2022-12-24T14:28:54;22.80;;;7.73;;
68803;SDS011;55787;52.678;13.314;2022-12-24T14:31:24;24.58;;;8.60;;
68803;SDS011;55787;52.678;13.314;2022-12-24T14:33:51;25.20;;;9.57;;
68803;SDS011;55787;52.678;13.314;2022-12-24T14:36:30;23.80;;;10.57;;
68803;SDS011;55787;52.678;13.314;2022-12-24T14:38:57;27.02;;;11.55;;
68803;SDS011;55787;52.678;13.314;2022-12-24T14:44:33;28.60;;;12.18;;
68803;SDS011;55787;52.678;13.314;2022-12-24T14:47:19;24.55;;;10.05;;
68803;SDS011;55787;52.678;13.314;2022-12-24T14:55:45;24.75;;;10.70;;
68803;SDS011;55787;52.678;13.314;2022-12-24T14:58:29;23.95;;;9.52;;
68803;SDS011;55787;52.678;13.314;2022-12-24T15:00:58;25.63;;;9.57;;
68803;SDS011;55787;52.678;13.314;2022-12-24T15:03:31;23.70;;;8.02;;
68803;SDS011;55787;52.678;13.314;2022-12-24T15:05:59;23.50;;;8.35;;
68803;SDS011;55787;52.678;13.314;2022-12-24T15:08:30;21.57;;;8.10;;
68803;SDS011;55787;52.678;13.314;2022-12-24T15:11:00;23.52;;;8.27;;
68803;SDS011;55787;52.678;13.314;2022-12-24T15:13:42;24.42;;;7.40;;
68803;SDS011;55787;52.678;13.314;2022-12-24T15:16:12;29.25;;;8.80;;
68803;SDS011;55787;52.678;13.314;2022-12-24T15:18:48;27.63;;;8.70;;
68803;SDS011;55787;52.678;13.314;2022-12-24T15:21:38;29.83;;;8.02;;
68803;SDS011;55787;52.678;13.314;2022-12-24T15:24:28;24.55;;;7.55;;
68803;SDS011;55787;52.678;13.314;2022-12-24T15:27:01;30.85;;;9.75;;
68803;SDS011;55787;52.678;13.314;2022-12-24T15:29:31;32.47;;;9.65;;
68803;SDS011;55787;52.678;13.314;2022-12-24T15:32:04;26.73;;;8.68;;
68803;SDS011;55787;52.678;13.314;2022-12-24T15:34:34;30.07;;;7.93;;
68803;SDS011;55787;52.678;13.314;2022-12-24T15:37:09;24.77;;;6.90;;
68803;SDS011;55787;52.678;13.314;2022-12-24T15:39:39;26.92;;;6.88;;
68803;SDS011;55787;52.678;13.314;2022-12-24T15:42:07;26.52;;;7.60;;
68803;SDS011;55787;52.678;13.314;2022-12-24T15:47:34;29.30;;;7.53;;
68803;SDS011;55787;52.678;13.314;2022-12-24T15:50:08;22.38;;;6.28;;
68803;SDS011;55787;52.678;13.314;2022-12-24T15:52:41;24.90;;;6.93;;
68803;SDS011;55787;52.678;13.314;2022-12-24T15:57:56;115.45;;;9.50;;
68803;SDS011;55787;52.678;13.314;2022-12-24T16:00:23;19.23;;;6.33;;
68803;SDS011;55787;52.678;13.314;2022-12-24T16:03:08;35.03;;;8.32;;
68803;SDS011;55787;52.678;13.314;2022-12-24T16:05:45;43.25;;;9.32;;
68803;SDS011;55787;52.678;13.314;2022-12-24T16:10:49;25.73;;;8.80;;
68803;SDS011;55787;52.678;13.314;2022-12-24T16:15:56;31.75;;;8.20;;
68803;SDS011;55787;52.678;13.314;2022-12-24T16:18:49;29.50;;;8.50;;
68803;SDS011;55787;52.678;13.314;2022-12-24T16:21:24;21.40;;;7.95;;
68803;SDS011;55787;52.678;13.314;2022-12-24T16:24:03;28.13;;;8.73;;
68803;SDS011;55787;52.678;13.314;2022-12-24T16:26:32;35.63;;;13.33;;
68803;SDS011;55787;52.678;13.314;2022-12-24T16:28:59;32.50;;;9.65;;
68803;SDS011;55787;52.678;13.314;2022-12-24T16:31:30;37.17;;;9.35;;
68803;SDS011;55787;52.678;13.314;2022-12-24T16:33:59;43.45;;;9.73;;
68803;SDS011;55787;52.678;13.314;2022-12-24T16:36:28;33.35;;;9.23;;
68803;SDS011;55787;52.678;13.314;2022-12-24T16:38:56;35.80;;;8.98;;
68803;SDS011;55787;52.678;13.314;2022-12-24T16:41:42;36.90;;;12.35;;
68803;SDS011;55787;52.678;13.314;2022-12-24T16:44:27;37.40;;;10.93;;
68803;SDS011;55787;52.678;13.314;2022-12-24T16:46:54;40.78;;;11.15;;
68803;SDS011;55787;52.678;13.314;2022-12-24T16:49:21;41.30;;;10.50;;
68803;SDS011;55787;52.678;13.314;2022-12-24T16:51:48;32.53;;;9.40;;
68803;SDS011;55787;52.678;13.314;2022-12-24T16:54:15;42.08;;;11.32;;
68803;SDS011;55787;52.678;13.314;2022-12-24T16:56:42;71.07;;;15.48;;
68803;SDS011;55787;52.678;13.314;2022-12-24T16:59:17;47.35;;;15.05;;
68803;SDS011;55787;52.678;13.314;2022-12-24T17:01:45;42.35;;;12.80;;
68803;SDS011;55787;52.678;13.314;2022-12-24T17:04:12;40.58;;;13.15;;
68803;SDS011;55787;52.678;13.314;2022-12-24T17:06:40;47.28;;;14.75;;
68803;SDS011;55787;52.678;13.314;2022-12-24T17:09:07;40.78;;;10.23;;
68803;SDS011;55787;52.678;13.314;2022-12-24T17:11:35;39.75;;;11.63;;
68803;SDS011;55787;52.678;13.314;2022-12-24T17:14:03;36.00;;;11.52;;
68803;SDS011;55787;52.678;13.314;2022-12-24T17:16:34;39.50;;;11.57;;
68803;SDS011;55787;52.678;13.314;2022-12-24T17:19:02;41.25;;;13.32;;
68803;SDS011;55787;52.678;13.314;2022-12-24T17:21:30;78.05;;;12.38;;
68803;SDS011;55787;52.678;13.314;2022-12-24T17:23:57;47.35;;;14.73;;